Time;durP1;ratioP1;P1;durP2;ratioP2;P2;SDS_P1;SDS_P2;PMS_P1;PMS_P2;Temp;Humidity;BMP_temperature;BMP_pressure;BME280_temperature;BME280_humidity;BME280_pressure;Samples;Min_cycle;Max_cycle;Signal;HPM_P1;HPM_P2
2022/10/04 00:01:06;;;;;;;0.00;0.00;;;12.10;99.90;;;;;;5032730;28;20888;-75
2022/10/04 00:03:40;;;;;;;0.00;0.00;;;12.10;99.90;;;;;;5029574;28;21178;-75
2022/10/04 00:06:15;;;;;;;0.00;0.00;;;12.00;99.90;;;;;;5018596;28;20481;-75
2022/10/04 00:08:48;;;;;;;0.00;0.00;;;12.00;99.90;;;;;;5032343;28;20449;-74
2022/10/04 00:11:21;;;;;;;0.00;0.00;;;12.00;99.90;;;;;;5013265;28;20848;-75
2022/10/04 00:13:51;;;;;;;0.00;0.00;;;11.90;99.90;;;;;;5012764;28;20442;-74
2022/10/04 00:16:23;;;;;;;0.00;0.00;;;11.90;99.90;;;;;;5032465;28;20859;-74
2022/10/04 00:19:03;;;;;;;0.00;0.00;;;11.90;99.90;;;;;;5032809;28;20492;-74
2022/10/04 00:22:07;;;;;;;0.00;0.00;;;11.90;99.90;;;;;;5031991;28;21057;-74
2022/10/04 00:24:37;;;;;;;0.00;0.00;;;11.90;99.90;;;;;;5032343;28;20924;-74
2022/10/04 00:27:18;;;;;;;0.00;0.00;;;11.90;99.90;;;;;;5032340;28;20523;-75
2022/10/04 00:29:50;;;;;;;0.00;0.00;;;11.90;99.90;;;;;;5032543;28;20975;-76
2022/10/04 00:32:29;;;;;;;0.00;0.00;;;11.80;99.90;;;;;;5032394;28;20444;-77
2022/10/04 00:34:59;;;;;;;0.00;0.00;;;11.80;99.90;;;;;;5032266;28;20460;-75
2022/10/04 00:37:48;;;;;;;0.00;0.00;;;11.80;99.90;;;;;;5032430;28;20491;-76
2022/10/04 00:40:19;;;;;;;0.00;0.00;;;11.80;99.90;;;;;;5032384;28;20461;-77
2022/10/04 00:42:58;;;;;;;0.00;0.00;;;11.70;99.90;;;;;;5032477;28;20441;-78
2022/10/04 00:45:36;;;;;;;0.00;0.00;;;11.70;99.90;;;;;;5032483;28;20915;-75
2022/10/04 00:48:27;;;;;;;0.00;0.00;;;11.70;99.90;;;;;;5032181;28;20445;-75
2022/10/04 00:51:04;;;;;;;0.00;0.00;;;11.70;99.90;;;;;;5031971;28;20464;-75
2022/10/04 00:53:50;;;;;;;0.00;0.00;;;11.60;99.90;;;;;;5032367;28;20970;-78
2022/10/04 00:56:25;;;;;;;0.00;0.00;;;11.70;99.90;;;;;;5032438;28;20433;-77
2022/10/04 00:59:17;;;;;;;0.00;0.00;;;11.80;99.90;;;;;;5035378;28;20448;-77
2022/10/04 01:01:49;;;;;;;0.00;0.00;;;11.80;99.90;;;;;;5036938;28;20459;-78
2022/10/04 01:04:28;;;;;;;0.00;0.00;;;11.90;99.90;;;;;;5036070;28;20498;-78
2022/10/04 01:07:00;;;;;;;0.00;0.00;;;11.90;99.90;;;;;;5035658;28;20477;-77
2022/10/04 01:09:29;;;;;;;0.00;0.00;;;11.90;99.90;;;;;;5036404;28;20523;-77
2022/10/04 01:12:03;;;;;;;0.00;0.00;;;11.90;99.90;;;;;;5036504;28;20515;-76
2022/10/04 01:14:40;;;;;;;0.00;0.00;;;11.90;99.90;;;;;;5035650;28;20450;-74
2022/10/04 01:17:08;;;;;;;0.00;0.00;;;11.90;99.90;;;;;;5035336;28;20429;-74
2022/10/04 01:19:36;;;;;;;0.00;0.00;;;11.90;99.90;;;;;;5036034;28;20593;-74
2022/10/04 01:22:13;;;;;;;0.00;0.00;;;11.90;99.90;;;;;;5035408;28;20449;-75
2022/10/04 01:24:44;;;;;;;0.00;0.00;;;11.90;99.90;;;;;;5034951;28;20440;-76
2022/10/04 01:27:33;;;;;;;0.00;0.00;;;11.90;99.90;;;;;;5034637;28;21015;-74
2022/10/04 01:30:04;;;;;;;0.00;0.00;;;11.90;99.90;;;;;;5034766;28;20564;-75
2022/10/04 01:32:32;;;;;;;0.00;0.00;;;11.90;99.90;;;;;;5035084;28;20499;-75
2022/10/04 01:34:59;;;;;;;0.00;0.00;;;11.90;99.90;;;;;;5034867;28;20851;-76
2022/10/04 01:37:27;;;;;;;0.00;0.00;;;11.90;99.90;;;;;;5035192;28;20932;-76
2022/10/04 01:39:57;;;;;;;0.00;0.00;;;11.90;99.90;;;;;;5035227;28;20469;-75
2022/10/04 01:42:32;;;;;;;0.00;0.00;;;11.90;99.90;;;;;;5035267;28;20473;-75
2022/10/04 01:45:07;;;;;;;0.00;0.00;;;11.80;99.90;;;;;;5036648;28;20463;-75
2022/10/04 01:47:41;;;;;;;0.00;0.00;;;11.80;99.90;;;;;;5034509;28;20503;-76
2022/10/04 01:50:13;;;;;;;0.00;0.00;;;11.70;99.90;;;;;;5034879;28;20518;-75
2022/10/04 01:52:48;;;;;;;0.00;0.00;;;11.70;99.90;;;;;;5034931;28;20464;-75
2022/10/04 01:55:20;;;;;;;0.00;0.00;;;11.70;99.90;;;;;;5026430;28;20563;-76
2022/10/04 01:57:52;;;;;;;0.00;0.00;;;11.60;99.90;;;;;;5015826;28;20442;-75
2022/10/04 02:00:22;;;;;;;0.00;0.00;;;11.60;99.90;;;;;;5014886;28;20482;-75
2022/10/04 02:02:54;;;;;;;0.00;0.00;;;11.50;99.90;;;;;;5014910;28;20453;-75
2022/10/04 02:05:28;;;;;;;0.00;0.00;;;11.50;99.90;;;;;;5014903;28;20500;-75
2022/10/04 02:08:01;;;;;;;0.00;0.00;;;11.60;99.90;;;;;;5014097;28;20478;-75
2022/10/04 02:10:36;;;;;;;0.00;0.00;;;11.60;99.90;;;;;;5015432;28;20462;-73
2022/10/04 02:13:14;;;;;;;0.00;0.00;;;11.60;99.90;;;;;;5054112;28;20472;-74
2022/10/04 02:18:57;;;;;;;0.00;0.00;;;11.60;99.90;;;;;;5902743;22;20483;-89
2022/10/04 02:21:26;;;;;;;0.00;0.00;;;11.60;99.90;;;;;;5059447;28;20458;-90
2022/10/04 02:23:54;;;;;;;0.00;0.00;;;11.60;99.90;;;;;;5060818;28;20511;-90
2022/10/04 02:26:24;;;;;;;0.00;0.00;;;11.60;99.90;;;;;;5061357;28;20543;-91
2022/10/04 02:28:54;;;;;;;0.00;0.00;;;11.70;99.90;;;;;;5061126;28;20432;-90
2022/10/04 02:34:10;;;;;;;0.00;0.00;;;11.80;99.90;;;;;;5060578;28;20509;-89
2022/10/04 02:36:39;;;;;;;0.00;0.00;;;11.80;99.90;;;;;;5060364;28;20523;-89
2022/10/04 02:39:14;;;;;;;0.00;0.00;;;11.80;99.90;;;;;;5058465;28;20482;-89
2022/10/04 02:41:47;;;;;;;0.00;0.00;;;11.90;99.90;;;;;;5059171;28;20436;-90
2022/10/04 02:44:21;;;;;;;0.00;0.00;;;11.90;99.90;;;;;;5065030;28;20808;-88
2022/10/04 02:46:53;;;;;;;0.00;0.00;;;11.90;99.90;;;;;;5058922;28;20479;-90
2022/10/04 02:49:30;;;;;;;0.00;0.00;;;12.00;99.90;;;;;;5059400;28;20479;-90
2022/10/04 02:52:03;;;;;;;0.00;0.00;;;12.00;99.90;;;;;;5063181;28;20546;-90
2022/10/04 02:54:36;;;;;;;0.00;0.00;;;12.00;99.90;;;;;;5059059;28;20927;-90
2022/10/04 02:57:14;;;;;;;0.00;0.00;;;12.10;99.90;;;;;;5059503;28;20440;-90
2022/10/04 02:59:42;;;;;;;0.00;0.00;;;12.10;99.90;;;;;;5058356;28;20468;-89
2022/10/04 03:02:22;;;;;;;0.00;0.00;;;12.10;99.90;;;;;;5057882;28;20448;-91
2022/10/04 03:05:03;;;;;;;0.00;0.00;;;12.10;99.90;;;;;;5062825;28;20543;-90
2022/10/04 03:07:32;;;;;;;0.00;0.00;;;12.00;99.90;;;;;;5075177;28;21041;-90
2022/10/04 03:10:01;;;;;;;0.00;0.00;;;12.10;99.90;;;;;;5060715;28;20491;-91
2022/10/04 03:12:31;;;;;;;0.00;0.00;;;12.10;99.90;;;;;;5061254;28;20456;-90
2022/10/04 03:14:59;;;;;;;0.00;0.00;;;12.10;99.90;;;;;;5061294;28;20934;-90
2022/10/04 03:17:28;;;;;;;0.00;0.00;;;12.10;99.90;;;;;;5061284;28;20448;-89
2022/10/04 03:19:57;;;;;;;0.00;0.00;;;12.20;99.90;;;;;;5059010;28;20492;-90
2022/10/04 03:22:25;;;;;;;0.00;0.00;;;12.20;99.90;;;;;;5061467;28;20460;-91
2022/10/04 03:24:56;;;;;;;0.00;0.00;;;12.20;99.90;;;;;;5061226;28;20958;-88
2022/10/04 03:27:28;;;;;;;0.00;0.00;;;12.20;99.90;;;;;;5059880;28;20500;-90
2022/10/04 03:29:58;;;;;;;0.00;0.00;;;12.20;99.90;;;;;;5059589;28;20483;-89
2022/10/04 03:32:29;;;;;;;0.00;0.00;;;12.20;99.90;;;;;;5059235;28;20490;-89
2022/10/04 03:34:59;;;;;;;0.00;0.00;;;12.30;99.90;;;;;;5061323;28;20504;-89
2022/10/04 03:37:31;;;;;;;0.00;0.00;;;12.20;99.90;;;;;;5061944;28;20800;-89
2022/10/04 03:40:00;;;;;;;0.00;0.00;;;12.30;99.90;;;;;;5060412;28;20484;-88
2022/10/04 03:42:30;;;;;;;0.00;0.00;;;12.20;99.90;;;;;;5060986;28;20452;-89
2022/10/04 03:45:04;;;;;;;0.00;0.00;;;12.30;99.90;;;;;;5060638;28;20479;-89
2022/10/04 03:47:35;;;;;;;0.00;0.00;;;12.30;99.90;;;;;;5061524;28;20566;-90
2022/10/04 03:50:11;;;;;;;0.00;0.00;;;12.30;99.90;;;;;;5061030;28;20479;-90
2022/10/04 03:52:44;;;;;;;0.00;0.00;;;12.30;99.90;;;;;;5061478;28;20452;-90
2022/10/04 03:55:14;;;;;;;0.00;0.00;;;12.30;99.90;;;;;;5062001;28;20488;-89
2022/10/04 03:57:43;;;;;;;0.00;0.00;;;12.30;99.90;;;;;;5060447;28;20455;-88
2022/10/04 04:00:18;;;;;;;0.00;0.00;;;12.30;99.90;;;;;;5060902;28;20482;-89
2022/10/04 04:02:52;;;;;;;0.00;0.00;;;12.30;99.90;;;;;;5061474;28;20450;-89
2022/10/04 04:05:24;;;;;;;0.00;0.00;;;12.30;99.90;;;;;;5061554;28;20478;-89
2022/10/04 04:08:00;;;;;;;0.00;0.00;;;12.20;99.90;;;;;;5063396;28;20472;-87
2022/10/04 04:10:31;;;;;;;0.00;0.00;;;12.20;99.90;;;;;;5071668;28;20456;-88
2022/10/04 04:13:04;;;;;;;0.00;0.00;;;12.20;99.90;;;;;;5054048;28;20469;-89
2022/10/04 04:15:34;;;;;;;0.00;0.00;;;12.20;99.90;;;;;;5050954;28;20432;-87
2022/10/04 04:18:04;;;;;;;0.00;0.00;;;12.20;99.90;;;;;;5062539;28;20452;-88
2022/10/04 04:20:35;;;;;;;0.00;0.00;;;12.20;99.90;;;;;;5066379;28;20491;-88
2022/10/04 04:23:12;;;;;;;0.00;0.00;;;12.20;99.90;;;;;;5051779;28;20495;-89
2022/10/04 04:25:42;;;;;;;0.00;0.00;;;12.30;99.90;;;;;;5052802;28;20444;-89
2022/10/04 04:28:24;;;;;;;0.00;0.00;;;12.20;99.90;;;;;;5077356;28;20462;-86
2022/10/04 04:31:04;;;;;;;0.00;0.00;;;12.20;99.90;;;;;;5077795;28;20487;-89
2022/10/04 04:33:44;;;;;;;0.00;0.00;;;12.20;99.90;;;;;;5070767;22;20488;-72
2022/10/04 04:36:15;;;;;;;0.00;0.00;;;12.30;99.90;;;;;;5054136;28;20450;-72
2022/10/04 04:41:27;;;;;;;0.00;0.00;;;12.30;99.90;;;;;;5050325;28;20472;-73
2022/10/04 04:43:55;;;;;;;0.00;0.00;;;12.30;99.90;;;;;;5049780;28;20886;-73
2022/10/04 04:46:25;;;;;;;0.00;0.00;;;12.40;99.90;;;;;;5055051;28;20456;-73
2022/10/04 04:49:00;;;;;;;0.00;0.00;;;12.50;99.90;;;;;;5055527;28;20503;-72
2022/10/04 04:51:31;;;;;;;0.00;0.00;;;12.50;99.90;;;;;;5055502;28;20471;-74
2022/10/04 04:54:03;;;;;;;0.00;0.00;;;12.60;99.90;;;;;;5052853;28;20501;-74
2022/10/04 04:56:32;;;;;;;0.00;0.00;;;12.60;99.90;;;;;;5051455;28;20951;-73
2022/10/04 04:59:03;;;;;;;0.00;0.00;;;12.60;99.90;;;;;;5055305;28;20498;-73
2022/10/04 05:01:35;;;;;;;0.00;0.00;;;12.70;99.90;;;;;;5055642;28;20517;-73
2022/10/04 05:04:05;;;;;;;0.00;0.00;;;12.60;99.90;;;;;;5055174;28;20521;-73
2022/10/04 05:06:35;;;;;;;0.00;0.00;;;12.60;99.90;;;;;;5049338;28;20459;-73
2022/10/04 05:09:04;;;;;;;0.00;0.00;;;12.70;99.90;;;;;;5054821;28;20476;-73
2022/10/04 05:11:34;;;;;;;0.00;0.00;;;12.70;99.90;;;;;;5053889;28;20488;-73
2022/10/04 05:14:06;;;;;;;0.00;0.00;;;12.60;99.90;;;;;;5056795;28;20451;-73
2022/10/04 05:16:40;;;;;;;0.00;0.00;;;12.60;99.90;;;;;;5059973;28;20463;-79
2022/10/04 05:19:13;;;;;;;0.00;0.00;;;12.60;99.90;;;;;;5055632;28;20963;-77
2022/10/04 05:21:45;;;;;;;0.00;0.00;;;12.60;99.90;;;;;;5055041;28;20464;-77
2022/10/04 05:24:19;;;;;;;0.00;0.00;;;12.60;99.90;;;;;;5055863;28;20448;-77
2022/10/04 05:26:50;;;;;;;0.00;0.00;;;12.60;99.90;;;;;;5056900;28;20521;-76
2022/10/04 05:29:21;;;;;;;0.00;0.00;;;12.50;99.90;;;;;;5054809;28;20530;-76
2022/10/04 05:31:57;;;;;;;0.00;0.00;;;12.50;99.90;;;;;;5055281;28;20440;-77
2022/10/04 05:34:28;;;;;;;0.00;0.00;;;12.50;99.90;;;;;;5055788;28;20443;-77
2022/10/04 05:37:15;;;;;;;0.00;0.00;;;12.50;99.90;;;;;;5054899;28;20448;-75
2022/10/04 05:39:49;;;;;;;0.00;0.00;;;12.40;99.90;;;;;;5052103;28;21005;-75
2022/10/04 05:42:23;;;;;;;0.00;0.00;;;12.40;99.90;;;;;;5052699;28;20869;-75
2022/10/04 05:44:52;;;;;;;0.00;0.00;;;12.40;99.90;;;;;;5053590;28;20529;-72
2022/10/04 05:47:26;;;;;;;0.00;0.00;;;12.40;99.90;;;;;;5054472;28;20448;-72
2022/10/04 05:49:56;;;;;;;0.00;0.00;;;12.40;99.90;;;;;;5053642;28;20483;-72
2022/10/04 05:52:29;;;;;;;0.00;0.00;;;12.40;99.90;;;;;;5054318;28;20518;-71
2022/10/04 05:55:27;;;;;;;0.00;0.00;;;12.30;99.90;;;;;;5054957;28;20521;-71
2022/10/04 05:58:33;;;;;;;0.00;0.00;;;12.40;99.90;;;;;;5054044;28;20521;-71
2022/10/04 06:01:21;;;;;;;0.00;0.00;;;12.30;99.90;;;;;;5052579;28;21040;-71
2022/10/04 06:04:04;;;;;;;0.00;0.00;;;12.30;99.90;;;;;;5055082;28;20563;-72
2022/10/04 06:06:40;;;;;;;0.00;0.00;;;12.40;99.90;;;;;;5053963;28;20456;-72
2022/10/04 06:09:16;;;;;;;0.00;0.00;;;12.40;99.90;;;;;;5052243;28;20527;-72
2022/10/04 06:12:00;;;;;;;0.00;0.00;;;12.50;99.90;;;;;;5054212;28;20973;-71
2022/10/04 06:14:57;;;;;;;0.00;0.00;;;12.50;99.90;;;;;;5053507;28;20445;-71
2022/10/04 06:17:38;;;;;;;0.00;0.00;;;12.50;99.90;;;;;;5053203;28;20444;-71
2022/10/04 06:20:33;;;;;;;0.00;0.00;;;12.50;99.90;;;;;;5051586;28;20463;-71
2022/10/04 06:23:05;;;;;;;0.00;0.00;;;12.60;99.90;;;;;;5049945;28;20436;-71
2022/10/04 06:25:38;;;;;;;0.00;0.00;;;12.50;99.90;;;;;;5053837;28;20460;-71
2022/10/04 06:28:18;;;;;;;0.00;0.00;;;12.40;99.90;;;;;;5052704;28;20444;-72
2022/10/04 06:31:04;;;;;;;0.00;0.00;;;12.30;99.90;;;;;;5053678;28;20487;-71
2022/10/04 06:33:48;;;;;;;0.00;0.00;;;12.20;99.90;;;;;;5053015;28;20452;-71
2022/10/04 06:36:37;;;;;;;0.00;0.00;;;12.10;99.90;;;;;;5046719;28;20448;-71
2022/10/04 06:39:31;;;;;;;0.00;0.00;;;12.00;99.90;;;;;;5047266;28;20513;-71
2022/10/04 06:42:23;;;;;;;0.00;0.00;;;12.00;99.90;;;;;;5033303;28;20864;-71
2022/10/04 06:45:05;;;;;;;0.00;0.00;;;12.00;99.90;;;;;;5052580;28;20935;-72
2022/10/04 06:47:47;;;;;;;0.00;0.00;;;11.90;99.90;;;;;;5049309;28;20505;-71
2022/10/04 06:50:25;;;;;;;0.00;0.00;;;11.90;99.90;;;;;;5052923;28;20484;-71
2022/10/04 06:53:14;;;;;;;0.00;0.00;;;12.00;99.90;;;;;;5053640;28;20442;-72
2022/10/04 06:56:04;;;;;;;0.00;0.00;;;12.00;99.90;;;;;;5051245;28;20456;-74
2022/10/04 06:58:49;;;;;;;0.00;0.00;;;12.10;99.90;;;;;;5047178;28;20900;-74
2022/10/04 07:01:26;;;;;;;0.00;0.00;;;12.20;99.90;;;;;;5045308;28;20467;-72
2022/10/04 07:04:02;;;;;;;0.00;0.00;;;12.30;99.90;;;;;;5044276;28;20456;-73
2022/10/04 07:06:34;;;;;;;0.00;0.00;;;12.40;99.90;;;;;;5040207;28;21014;-74
2022/10/04 07:09:06;;;;;;;0.00;0.00;;;12.60;99.90;;;;;;5042634;28;20557;-72
2022/10/04 07:11:44;;;;;;;0.00;0.00;;;12.70;99.90;;;;;;5045954;28;20471;-74
2022/10/04 07:14:16;;;;;;;0.00;0.00;;;12.90;99.90;;;;;;5053132;28;20440;-74
2022/10/04 07:16:48;;;;;;;0.00;0.00;;;13.10;99.90;;;;;;5039878;28;20511;-74
2022/10/04 07:19:36;;;;;;;0.00;0.00;;;13.30;99.90;;;;;;5049481;28;20460;-74
2022/10/04 07:22:16;;;;;;;0.00;0.00;;;13.50;99.90;;;;;;5042511;28;20911;-73
2022/10/04 07:25:01;;;;;;;0.00;0.00;;;13.50;99.90;;;;;;5035467;28;20449;-73
2022/10/04 07:27:32;;;;;;;0.00;0.00;;;13.60;99.90;;;;;;5048674;28;20494;-74
2022/10/04 07:30:04;;;;;;;0.00;0.00;;;13.80;99.90;;;;;;5052380;28;21053;-73
2022/10/04 07:32:35;;;;;;;0.00;0.00;;;13.90;99.90;;;;;;5037092;28;20464;-74
2022/10/04 07:35:13;;;;;;;0.00;0.00;;;14.00;99.90;;;;;;5048066;28;20452;-74
2022/10/04 07:37:51;;;;;;;0.00;0.00;;;14.10;99.90;;;;;;5035614;28;20449;-73
2022/10/04 07:40:25;;;;;;;0.00;0.00;;;14.10;99.90;;;;;;5034427;28;20452;-73
2022/10/04 07:42:58;;;;;;;0.00;0.00;;;14.20;99.90;;;;;;5033639;28;20453;-74
2022/10/04 07:45:31;;;;;;;0.00;0.00;;;14.30;99.90;;;;;;5048615;28;20541;-73
2022/10/04 07:48:05;;;;;;;0.00;0.00;;;14.40;99.90;;;;;;5047805;28;20528;-73
2022/10/04 07:50:41;;;;;;;0.00;0.00;;;14.40;99.90;;;;;;5045704;28;20537;-74
2022/10/04 07:53:14;;;;;;;0.00;0.00;;;14.50;99.90;;;;;;5053056;28;20436;-73
2022/10/04 07:55:52;;;;;;;0.00;0.00;;;14.50;99.90;;;;;;5039125;28;20465;-73
2022/10/04 07:58:37;;;;;;;0.00;0.00;;;14.60;99.90;;;;;;5035511;28;20445;-74
2022/10/04 08:01:24;;;;;;;0.00;0.00;;;14.60;99.90;;;;;;5039711;28;20475;-74
2022/10/04 08:04:14;;;;;;;0.00;0.00;;;14.60;99.90;;;;;;5044957;28;20518;-74
2022/10/04 08:06:56;;;;;;;0.00;0.00;;;14.60;99.90;;;;;;5047256;28;20460;-74
2022/10/04 08:09:46;;;;;;;0.00;0.00;;;14.60;99.90;;;;;;5042792;28;20493;-73
2022/10/04 08:12:23;;;;;;;0.00;0.00;;;14.70;99.90;;;;;;5042211;28;20501;-74
2022/10/04 08:14:56;;;;;;;0.00;0.00;;;14.70;99.90;;;;;;5048313;28;20497;-69
2022/10/04 08:17:41;;;;;;;0.00;0.00;;;14.80;99.90;;;;;;5055494;28;20487;-68
2022/10/04 08:20:25;;;;;;;0.00;0.00;;;14.90;99.90;;;;;;5044868;28;20476;-68
2022/10/04 08:23:25;;;;;;;0.00;0.00;;;15.00;99.90;;;;;;5036453;28;20986;-68
2022/10/04 08:26:02;;;;;;;0.00;0.00;;;15.00;99.90;;;;;;5041401;28;20452;-67
2022/10/04 08:31:40;;;;;;;0.00;0.00;;;15.30;99.90;;;;;;5036393;28;20480;-68
2022/10/04 08:34:30;;;;;;;0.00;0.00;;;15.30;99.90;;;;;;5036498;28;20428;-68
2022/10/04 08:37:12;;;;;;;0.00;0.00;;;15.40;99.90;;;;;;5054759;28;20460;-67
2022/10/04 08:39:56;;;;;;;0.00;0.00;;;15.50;99.90;;;;;;5056199;28;20497;-68
2022/10/04 08:42:57;;;;;;;0.00;0.00;;;15.60;99.90;;;;;;5056078;28;21089;-68
2022/10/04 08:45:53;;;;;;;0.00;0.00;;;15.60;99.90;;;;;;5055536;28;20459;-68
2022/10/04 08:49:08;;;;;;;0.00;0.00;;;15.70;99.90;;;;;;5030420;28;20475;-68
2022/10/04 08:52:19;;;;;;;0.00;0.00;;;15.70;99.90;;;;;;5046406;28;20464;-68
2022/10/04 08:55:33;;;;;;;0.00;0.00;;;15.70;99.90;;;;;;5045267;28;20456;-68
2022/10/04 08:58:15;;;;;;;0.00;0.00;;;15.80;99.90;;;;;;5047365;28;20487;-66
2022/10/04 09:01:05;;;;;;;0.00;0.00;;;15.80;99.90;;;;;;5051705;28;20449;-67
2022/10/04 09:04:21;;;;;;;0.00;0.00;;;15.90;99.90;;;;;;5051038;28;20472;-66
2022/10/04 09:07:00;;;;;;;0.00;0.00;;;15.90;99.90;;;;;;5049098;28;20868;-67
2022/10/04 09:09:56;;;;;;;0.00;0.00;;;15.90;99.90;;;;;;5054624;28;20950;-67
2022/10/04 09:12:48;;;;;;;0.00;0.00;;;16.00;99.90;;;;;;5044464;28;20432;-70
2022/10/04 09:15:30;;;;;;;0.00;0.00;;;16.10;99.90;;;;;;5045444;28;20456;-66
2022/10/04 09:18:19;;;;;;;0.00;0.00;;;16.30;99.90;;;;;;5047102;28;20931;-67
2022/10/04 09:20:56;;;;;;;0.00;0.00;;;16.30;99.90;;;;;;5046050;28;20522;-68
2022/10/04 09:23:57;;;;;;;0.00;0.00;;;16.40;99.90;;;;;;5038794;28;20512;-67
2022/10/04 09:26:36;;;;;;;0.00;0.00;;;16.40;99.90;;;;;;5037412;28;20561;-67
2022/10/04 09:29:26;;;;;;;0.00;0.00;;;16.40;99.90;;;;;;5054470;28;20528;-67
2022/10/04 09:32:21;;;;;;;0.00;0.00;;;16.40;99.90;;;;;;5044416;28;20449;-67
2022/10/04 09:35:13;;;;;;;0.00;0.00;;;16.50;99.90;;;;;;5015755;28;20453;-67
2022/10/04 09:37:55;;;;;;;0.00;0.00;;;16.60;99.90;;;;;;5040825;28;20459;-67
2022/10/04 09:40:48;;;;;;;0.00;0.00;;;16.60;99.90;;;;;;5048080;28;20457;-67
2022/10/04 09:43:44;;;;;;;0.00;0.00;;;16.70;99.90;;;;;;5047897;28;20444;-67
2022/10/04 09:46:28;;;;;;;0.00;0.00;;;16.80;99.90;;;;;;5040313;28;20933;-66
2022/10/04 09:49:05;;;;;;;0.00;0.00;;;16.80;99.90;;;;;;5035878;28;20507;-68
2022/10/04 09:52:07;;;;;;;0.00;0.00;;;16.90;99.90;;;;;;5046110;28;20543;-64
2022/10/04 09:55:13;;;;;;;0.00;0.00;;;16.90;99.90;;;;;;5037865;28;20893;-65
2022/10/04 09:57:54;;;;;;;0.00;0.00;;;16.90;99.90;;;;;;5042021;28;21010;-69
2022/10/04 10:00:24;;;;;;;0.00;0.00;;;17.00;99.90;;;;;;5044899;28;20987;-67
2022/10/04 10:03:29;;;;;;;0.00;0.00;;;17.10;99.90;;;;;;5048498;28;20477;-67
2022/10/04 10:06:31;;;;;;;0.00;0.00;;;17.10;99.90;;;;;;5038414;28;20499;-69
2022/10/04 10:13:38;;;;;;;0.00;0.00;;;17.20;99.90;;;;;;5052207;28;20920;-67
2022/10/04 10:15:37;;;;;;;0.00;0.00;;;17.20;99.90;;;;;;5031482;28;20458;-67
2022/10/04 10:18:17;;;;;;;0.00;0.00;;;17.10;99.90;;;;;;5034986;28;20462;-67
2022/10/04 10:21:12;;;;;;;0.00;0.00;;;17.00;99.90;;;;;;5046866;28;20456;-66
2022/10/04 10:24:12;;;;;;;0.00;0.00;;;16.80;99.90;;;;;;5034299;28;20488;-68
2022/10/04 10:27:02;;;;;;;0.00;0.00;;;16.60;99.90;;;;;;5029470;28;20448;-67
2022/10/04 10:30:05;;;;;;;0.00;0.00;;;16.40;99.90;;;;;;5048205;28;20453;-67
2022/10/04 10:32:58;;;;;;;0.00;0.00;;;16.20;99.90;;;;;;5047882;28;20534;-67
2022/10/04 10:35:37;;;;;;;0.00;0.00;;;16.10;99.90;;;;;;5039641;28;20451;-67
2022/10/04 10:38:31;;;;;;;0.00;0.00;;;15.90;99.90;;;;;;5031647;28;21216;-67
2022/10/04 10:41:22;;;;;;;0.00;0.00;;;16.00;99.90;;;;;;5038242;28;20519;-67
2022/10/04 10:44:06;;;;;;;0.00;0.00;;;16.10;99.90;;;;;;5046367;28;20981;-67
2022/10/04 10:46:58;;;;;;;0.00;0.00;;;16.20;99.90;;;;;;5032276;28;20442;-69
2022/10/04 10:49:40;;;;;;;0.00;0.00;;;16.20;99.90;;;;;;5049181;28;20500;-66
2022/10/04 10:52:44;;;;;;;0.00;0.00;;;16.20;99.90;;;;;;5035229;28;20546;-67
2022/10/04 10:55:31;;;;;;;0.00;0.00;;;16.20;99.90;;;;;;5014145;28;20443;-66
2022/10/04 10:58:25;;;;;;;0.00;0.00;;;16.20;99.90;;;;;;5054466;28;20492;-66
2022/10/04 11:01:09;;;;;;;0.00;0.00;;;16.20;99.90;;;;;;5047600;28;20470;-67
2022/10/04 11:04:07;;;;;;;0.00;0.00;;;16.30;99.90;;;;;;5041686;28;20446;-67
2022/10/04 11:07:21;;;;;;;0.00;0.00;;;16.20;99.90;;;;;;5049017;28;20820;-66
2022/10/04 11:10:31;;;;;;;0.00;0.00;;;16.20;99.90;;;;;;5045427;28;20475;-67
2022/10/04 11:13:36;;;;;;;0.00;0.00;;;16.30;99.90;;;;;;5044521;28;20868;-67
2022/10/04 11:16:22;;;;;;;0.00;0.00;;;16.50;99.90;;;;;;5039643;28;20452;-67
2022/10/04 11:19:29;;;;;;;0.00;0.00;;;16.60;99.90;;;;;;5049147;28;20445;-67
2022/10/04 11:22:45;;;;;;;0.00;0.00;;;16.70;99.90;;;;;;5049922;28;20446;-68
2022/10/04 11:25:47;;;;;;;0.00;0.00;;;16.80;99.90;;;;;;4979115;28;20519;-67
2022/10/04 11:28:20;;;;;;;0.00;0.00;;;16.90;99.90;;;;;;5041420;28;20507;-66
2022/10/04 11:31:31;;;;;;;0.00;0.00;;;17.10;99.90;;;;;;5040259;28;20485;-67
2022/10/04 11:34:22;;;;;;;0.00;0.00;;;17.20;99.90;;;;;;5001105;28;20472;-66
2022/10/04 11:37:04;;;;;;;0.00;0.00;;;17.30;99.90;;;;;;5041327;28;20447;-66
2022/10/04 11:39:53;;;;;;;0.00;0.00;;;17.30;99.90;;;;;;5041012;28;20528;-66
2022/10/04 11:42:35;;;;;;;0.00;0.00;;;17.40;99.90;;;;;;5051651;28;20937;-66
2022/10/04 11:45:32;;;;;;;0.00;0.00;;;17.40;99.90;;;;;;5038589;28;20465;-66
2022/10/04 11:48:10;;;;;;;0.00;0.00;;;17.50;99.90;;;;;;5034387;28;20446;-68
2022/10/04 11:51:03;;;;;;;0.00;0.00;;;17.60;99.90;;;;;;5040104;28;20908;-66
2022/10/04 11:54:15;;;;;;;0.00;0.00;;;17.60;99.90;;;;;;5045974;28;20449;-66
2022/10/04 11:57:03;;;;;;;0.00;0.00;;;17.80;99.90;;;;;;5018180;28;20447;-66
2022/10/04 11:59:45;;;;;;;0.00;0.00;;;17.80;99.90;;;;;;5039548;28;20466;-66
2022/10/04 12:02:46;;;;;;;0.00;0.00;;;17.70;99.90;;;;;;5038482;28;20435;-66
2022/10/04 12:05:32;;;;;;;0.00;0.00;;;17.60;99.90;;;;;;5033699;28;20472;-66
2022/10/04 12:08:16;;;;;;;0.00;0.00;;;17.50;99.90;;;;;;5032436;28;20443;-66
2022/10/04 12:11:00;;;;;;;0.00;0.00;;;17.50;99.90;;;;;;5047955;28;20580;-67
2022/10/04 12:13:48;;;;;;;0.00;0.00;;;17.40;99.90;;;;;;5052887;28;20437;-66
2022/10/04 12:16:36;;;;;;;0.00;0.00;;;17.40;99.90;;;;;;5043877;28;20475;-66
2022/10/04 12:19:36;;;;;;;0.00;0.00;;;17.30;99.90;;;;;;5037521;28;20446;-66
2022/10/04 12:22:17;;;;;;;0.00;0.00;;;17.30;99.90;;;;;;5046423;28;20442;-66
2022/10/04 12:25:10;;;;;;;0.00;0.00;;;17.30;99.90;;;;;;5044044;28;20476;-65
2022/10/04 12:28:24;;;;;;;0.00;0.00;;;17.40;99.90;;;;;;5037387;28;20463;-65
2022/10/04 12:31:19;;;;;;;0.00;0.00;;;17.50;99.90;;;;;;5012818;28;20479;-66
2022/10/04 12:33:55;;;;;;;0.00;0.00;;;17.50;99.90;;;;;;5038718;28;20548;-66
2022/10/04 12:36:34;;;;;;;0.00;0.00;;;17.60;99.90;;;;;;5037728;28;20474;-66
2022/10/04 12:39:28;;;;;;;0.00;0.00;;;17.70;99.90;;;;;;5045817;28;20504;-66
2022/10/04 12:42:10;;;;;;;0.00;0.00;;;17.70;99.90;;;;;;5013881;28;20501;-65
2022/10/04 12:44:54;;;;;;;0.00;0.00;;;17.60;99.90;;;;;;5042978;28;20442;-66
2022/10/04 12:47:44;;;;;;;0.00;0.00;;;17.60;99.90;;;;;;5042246;28;20468;-66
2022/10/04 12:50:21;;;;;;;0.00;0.00;;;17.70;99.90;;;;;;5041581;28;20456;-66
2022/10/04 12:52:55;;;;;;;0.00;0.00;;;17.70;99.90;;;;;;5041937;28;20986;-66
2022/10/04 12:55:46;;;;;;;0.00;0.00;;;17.70;99.90;;;;;;5037917;28;20436;-67
2022/10/04 12:58:24;;;;;;;0.00;0.00;;;17.80;99.90;;;;;;5047897;28;20463;-69
2022/10/04 13:00:57;;;;;;;0.00;0.00;;;17.90;99.90;;;;;;5055763;28;20974;-69
2022/10/04 13:03:39;;;;;;;0.00;0.00;;;17.80;99.90;;;;;;5041558;28;20447;-67
2022/10/04 13:06:14;;;;;;;0.00;0.00;;;17.80;99.90;;;;;;5035685;28;20531;-66
2022/10/04 13:08:55;;;;;;;0.00;0.00;;;17.80;99.90;;;;;;5049051;28;20474;-66
2022/10/04 13:11:52;;;;;;;0.00;0.00;;;17.70;99.90;;;;;;5037899;28;20881;-66
2022/10/04 13:14:54;;;;;;;0.00;0.00;;;17.60;99.90;;;;;;5044919;28;20442;-66
2022/10/04 13:17:38;;;;;;;0.00;0.00;;;17.70;99.90;;;;;;5055409;28;20445;-66
2022/10/04 13:20:28;;;;;;;0.00;0.00;;;17.70;99.90;;;;;;5055812;28;20906;-67
2022/10/04 13:23:04;;;;;;;0.00;0.00;;;17.70;99.90;;;;;;5052037;28;20446;-65
2022/10/04 13:26:01;;;;;;;0.00;0.00;;;17.70;99.90;;;;;;5052882;28;20460;-67
2022/10/04 13:28:37;;;;;;;0.00;0.00;;;17.70;99.90;;;;;;5033277;28;20456;-67
2022/10/04 13:31:11;;;;;;;0.00;0.00;;;17.60;99.90;;;;;;5033147;28;20459;-67
2022/10/04 13:33:45;;;;;;;0.00;0.00;;;17.60;99.90;;;;;;5052661;28;20547;-67
2022/10/04 13:36:22;;;;;;;0.00;0.00;;;17.60;99.90;;;;;;5055463;28;20500;-67
2022/10/04 13:39:19;;;;;;;0.00;0.00;;;17.70;99.90;;;;;;5054912;28;20951;-67
2022/10/04 13:42:11;;;;;;;0.00;0.00;;;17.70;99.90;;;;;;5041972;28;20449;-67
2022/10/04 13:45:02;;;;;;;0.00;0.00;;;17.60;99.90;;;;;;5034904;28;20444;-67
2022/10/04 13:47:54;;;;;;;0.00;0.00;;;17.70;99.90;;;;;;5035318;28;20452;-66
2022/10/04 13:50:32;;;;;;;0.00;0.00;;;17.70;99.90;;;;;;5035280;28;20872;-67
2022/10/04 13:58:57;;;;;;;0.00;0.00;;;17.50;99.90;;;;;;5054440;28;20441;-68
2022/10/04 14:02:03;;;;;;;0.00;0.00;;;17.50;99.90;;;;;;5045177;28;20471;-66
2022/10/04 14:05:14;;;;;;;0.00;0.00;;;17.50;99.90;;;;;;5036894;28;20513;-68
2022/10/04 14:07:58;;;;;;;0.00;0.00;;;17.50;99.90;;;;;;5036926;28;20467;-67
2022/10/04 14:10:47;;;;;;;0.00;0.00;;;17.50;99.90;;;;;;5044884;28;20552;-67
2022/10/04 14:13:47;;;;;;;0.00;0.00;;;17.40;99.90;;;;;;5044535;28;20484;-68
2022/10/04 14:16:32;;;;;;;0.00;0.00;;;17.40;99.90;;;;;;5043093;28;20458;-67
2022/10/04 14:19:35;;;;;;;0.00;0.00;;;17.40;99.90;;;;;;5051601;28;20511;-68
2022/10/04 14:22:50;;;;;;;0.00;0.00;;;17.40;99.90;;;;;;5043426;28;20446;-68